메인 페이지
METAR-TAF:

METAR-TAF

공항 :

와가두구, 부르키나파소

위도: 12-21N, 경도: 001-31W, 고도: 316m

현재 날씨관측

예보는 31분 전, 09:00시(UTC)에 발표되었습니다.
6kt동북동풍과 동남동풍을 오가는
온도 26°C
습도 17%
기압 1015 hPa
시정: 2500m
황사

METAR: DFFD 180900Z 08006KT 060V120 2500 DU NSC 26/M01 Q1015 TEMPO 4000 DU

시각: 09:31 (09:31 UTC)

예보

예보는 10 시간 31분 전, 23:00시(UTC)에 발표되었습니다.
예보 대상 시간: 18일 00시부터 19일 06시까지 (UTC)
동북동8kt
시정: 6000m
전환 중
18일 04시부터 18일 06시까지 (UTC)
시정: 2500m
황사
일시적
18일 07시부터 18일 11시까지 (UTC)
시정: 1400m
황사
전환 중
18일 20시부터 18일 22시까지 (UTC)
시정: 6000m

TAF: DFFD 172300Z 1800/1906 07008KT 6000 NSC BECMG 1804/1806 2500 DU TEMPO 1807/1811 1400 DU BECMG 1820/1822 6000 NSW

4,000개 이상의 공항 관측 자료 및 예보 (METAR 및 TAF 보고).

지도상에서 검색 가능한 기상관측소가 노란 점과 빨간 점으로 표시되어 있습니다.

기상관측소 명을 보려면 표시 위로 마우스를 이동하세요.

날씨 관측과 예보를 보려면 클릭하세요.

지도 변경 : 확대하려면 엑스 표시가 있는 녹색 버튼, 축소하려면 빼기 표시가 있는 녹색 버튼, 다음 페이지의 지도를 보려면 녹색 화살표를 클릭하세요.


METAR-TAF: